createdAt,value
2016-11-02T00:01:23.003Z,0
2016-11-02T00:02:04.710Z,0
2016-11-02T00:04:25.167Z,0
2016-11-02T00:05:06.808Z,0
2016-11-02T00:07:22.248Z,0
2016-11-02T00:08:03.661Z,0
2016-11-02T00:08:45.339Z,0
2016-11-02T00:09:26.673Z,0
2016-11-02T00:13:31.338Z,0
2016-11-02T00:14:12.787Z,0
2016-11-02T00:14:54.326Z,0
2016-11-02T00:15:36.099Z,0
2016-11-02T00:19:56.620Z,0
2016-11-02T00:20:38.395Z,0
2016-11-02T00:22:59.035Z,0
2016-11-02T00:23:40.801Z,0
2016-11-02T00:24:22.587Z,0
2016-11-02T00:25:04.223Z,0
2016-11-02T00:25:45.946Z,0
2016-11-02T00:26:27.665Z,0
2016-11-02T00:27:09.360Z,0
2016-11-02T00:29:30.142Z,0
2016-11-02T00:30:11.827Z,0
2016-11-02T00:30:53.537Z,0
2016-11-02T00:31:35.245Z,0
2016-11-02T00:34:06.376Z,0
2016-11-02T00:34:47.992Z,0
2016-11-02T00:37:24.456Z,0
2016-11-02T00:38:06.118Z,0
2016-11-02T00:38:47.880Z,0
2016-11-02T00:39:29.638Z,0
2016-11-02T00:40:11.303Z,0
2016-11-02T00:40:53.027Z,0
2016-11-02T00:41:34.773Z,0
2016-11-02T00:44:11.019Z,0
2016-11-02T00:44:52.552Z,0
2016-11-02T00:45:34.170Z,0
2016-11-02T00:46:15.772Z,0
2016-11-02T00:46:57.491Z,0
2016-11-02T00:47:39.209Z,0
2016-11-02T00:48:20.917Z,0
2016-11-02T00:50:52.034Z,0
2016-11-02T00:51:33.847Z,0
2016-11-02T00:52:15.596Z,0
2016-11-02T00:54:52.005Z,0
2016-11-02T00:55:33.730Z,0
2016-11-02T00:56:15.369Z,0
2016-11-02T00:56:57.033Z,0
2016-11-02T01:03:17.376Z,0
2016-11-02T01:03:59.013Z,0
2016-11-02T01:04:40.512Z,0
2016-11-02T01:05:22.119Z,0
2016-11-02T01:07:37.446Z,0
2016-11-02T01:08:19.278Z,0
2016-11-02T01:09:01.005Z,0
2016-11-02T01:09:42.705Z,0
2016-11-02T01:10:24.384Z,0
2016-11-02T01:12:45.012Z,0
2016-11-02T01:13:26.810Z,0
2016-11-02T01:14:08.468Z,0
2016-11-02T01:14:50.316Z,0
2016-11-02T01:17:26.605Z,0
2016-11-02T01:18:08.238Z,0
2016-11-02T01:18:49.893Z,0
2016-11-02T01:19:31.655Z,0
2016-11-02T01:20:13.416Z,0
2016-11-02T01:22:55.303Z,0
2016-11-02T01:23:37.069Z,0
2016-11-02T01:24:18.802Z,0
2016-11-02T01:25:00.483Z,0
2016-11-02T01:27:31.530Z,0
2016-11-02T01:28:13.276Z,0
2016-11-02T01:28:55.015Z,0
2016-11-02T01:29:36.358Z,0
2016-11-02T01:31:51.675Z,0
2016-11-02T01:32:33.314Z,0
2016-11-02T01:33:14.788Z,0
2016-11-02T01:35:45.512Z,0
2016-11-02T01:36:27.246Z,0
2016-11-02T01:38:42.674Z,0
2016-11-02T01:39:24.398Z,0
2016-11-02T01:40:05.937Z,0
2016-11-02T01:40:47.675Z,0
2016-11-02T01:41:29.509Z,0
2016-11-02T01:42:11.150Z,0
2016-11-02T01:42:52.818Z,0
2016-11-02T01:43:34.455Z,0
2016-11-02T01:44:16.185Z,0
2016-11-02T01:44:57.926Z,0
2016-11-02T01:49:02.624Z,0
2016-11-02T01:51:23.262Z,0
2016-11-02T01:52:05.012Z,0
2016-11-02T01:54:25.713Z,0
2016-11-02T01:55:07.395Z,0
2016-11-02T01:57:43.792Z,0
2016-11-02T01:58:25.522Z,0
2016-11-02T01:59:07.228Z,0
2016-11-02T01:59:47.920Z,0
2016-11-02T02:00:28.458Z,0
2016-11-02T02:01:09.002Z,0
2016-11-02T02:01:49.535Z,0
2016-11-02T02:02:30.041Z,0
2016-11-02T02:03:10.567Z,0
2016-11-02T02:03:51.116Z,0
2016-11-02T02:04:31.663Z,0
2016-11-02T02:05:12.190Z,0
2016-11-02T02:05:52.713Z,0
2016-11-02T02:06:33.234Z,0
2016-11-02T02:07:13.776Z,0
2016-11-02T02:07:54.323Z,0
2016-11-02T02:08:34.856Z,0
2016-11-02T02:09:15.358Z,0
2016-11-02T02:09:55.874Z,0
2016-11-02T02:10:36.416Z,0
2016-11-02T02:11:16.945Z,0
2016-11-02T02:11:57.458Z,0
2016-11-02T02:12:38.001Z,0
2016-11-02T02:13:18.548Z,0
2016-11-02T02:13:59.084Z,0
2016-11-02T02:14:39.629Z,0
2016-11-02T02:15:20.183Z,0
2016-11-02T02:16:00.704Z,0
2016-11-02T02:16:41.239Z,0
2016-11-02T02:17:21.763Z,0
2016-11-02T02:18:02.304Z,0
2016-11-02T02:18:42.824Z,0
2016-11-02T02:19:23.359Z,0
2016-11-02T02:20:03.895Z,0
2016-11-02T02:20:44.406Z,0
2016-11-02T02:21:24.936Z,0
2016-11-02T02:22:05.472Z,0
2016-11-02T02:22:46.007Z,0
2016-11-02T02:23:26.528Z,0
2016-11-02T02:24:07.064Z,0
2016-11-02T02:24:47.580Z,0
2016-11-02T02:25:28.115Z,0
2016-11-02T02:26:08.663Z,0
2016-11-02T02:26:49.194Z,0
2016-11-02T02:27:29.731Z,0
2016-11-02T02:28:10.266Z,0
2016-11-02T02:28:50.801Z,0
2016-11-02T02:29:31.329Z,0
2016-11-02T02:30:11.870Z,0
2016-11-02T02:30:52.394Z,0
2016-11-02T02:31:32.927Z,0
2016-11-02T02:32:13.454Z,0
2016-11-02T02:32:53.972Z,0
2016-11-02T02:33:34.523Z,0
2016-11-02T02:34:15.058Z,0
2016-11-02T02:34:55.606Z,0
2016-11-02T02:35:36.117Z,0
2016-11-02T02:36:16.676Z,0
2016-11-02T02:36:57.196Z,0
2016-11-02T02:37:37.734Z,0
2016-11-02T02:38:18.253Z,0
2016-11-02T02:38:58.784Z,0
2016-11-02T02:39:39.309Z,0
2016-11-02T02:40:19.847Z,0
2016-11-02T02:41:00.381Z,0
2016-11-02T02:41:40.905Z,0
2016-11-02T02:42:21.430Z,0
2016-11-02T02:43:01.970Z,0
2016-11-02T02:43:42.490Z,0
2016-11-02T02:44:23.031Z,0
2016-11-02T02:45:03.569Z,0
2016-11-02T02:45:44.086Z,0
2016-11-02T02:46:24.621Z,0
2016-11-02T02:47:05.142Z,0
2016-11-02T02:47:45.683Z,0
2016-11-02T02:48:26.201Z,0
2016-11-02T02:49:06.746Z,0
2016-11-02T02:49:47.279Z,0
2016-11-02T02:50:27.804Z,0
2016-11-02T02:51:08.346Z,0
2016-11-02T02:51:48.884Z,0
2016-11-02T02:52:29.429Z,0
2016-11-02T02:53:09.960Z,0
2016-11-02T02:53:50.487Z,0
2016-11-02T02:54:31.028Z,0
2016-11-02T02:55:11.557Z,0
2016-11-02T02:55:52.095Z,0
2016-11-02T02:56:32.622Z,0
2016-11-02T02:57:13.154Z,0
2016-11-02T02:57:53.671Z,0
2016-11-02T02:58:34.224Z,0
2016-11-02T02:59:14.767Z,0
2016-11-02T02:59:55.296Z,0
2016-11-02T03:00:35.829Z,0
2016-11-02T03:01:16.360Z,0
2016-11-02T03:01:56.871Z,0
2016-11-02T03:02:37.398Z,0
2016-11-02T03:03:17.935Z,0
2016-11-02T03:03:58.466Z,0
2016-11-02T03:04:38.987Z,0
2016-11-02T03:05:19.552Z,0
2016-11-02T03:06:00.077Z,0
2016-11-02T03:06:40.630Z,0
2016-11-02T03:07:21.170Z,0
2016-11-02T03:08:01.709Z,0
2016-11-02T03:08:42.244Z,0
2016-11-02T03:09:22.793Z,0
2016-11-02T03:10:03.299Z,0
2016-11-02T03:10:43.846Z,0
2016-11-02T03:11:24.356Z,0
2016-11-02T03:12:04.894Z,0
2016-11-02T03:12:45.405Z,0
2016-11-02T03:13:25.933Z,0
2016-11-02T03:14:06.473Z,0
2016-11-02T03:14:47.012Z,0
2016-11-02T03:15:27.543Z,0
2016-11-02T03:16:08.066Z,0
2016-11-02T03:16:48.592Z,0
2016-11-02T03:17:29.116Z,0
2016-11-02T03:18:09.661Z,0
2016-11-02T03:18:50.201Z,0
2016-11-02T03:19:30.740Z,0
2016-11-02T03:20:11.280Z,0
2016-11-02T03:20:51.807Z,0
2016-11-02T03:21:32.330Z,0
2016-11-02T03:22:12.865Z,0
2016-11-02T03:22:53.422Z,0
2016-11-02T03:23:33.948Z,0
2016-11-02T03:24:14.462Z,0
2016-11-02T03:24:54.985Z,0
2016-11-02T03:25:35.527Z,0
2016-11-02T03:26:16.066Z,0
2016-11-02T03:26:56.596Z,0
2016-11-02T03:27:37.118Z,0
2016-11-02T03:28:17.654Z,0
2016-11-02T03:28:58.175Z,0
2016-11-02T03:29:38.716Z,0
2016-11-02T03:30:19.255Z,0
2016-11-02T03:30:59.801Z,0
2016-11-02T03:31:40.336Z,0
2016-11-02T03:32:20.854Z,0
2016-11-02T03:33:01.382Z,0
2016-11-02T03:33:41.920Z,0
2016-11-02T03:34:22.461Z,0
2016-11-02T03:35:03.001Z,0
2016-11-02T03:35:43.518Z,0
2016-11-02T03:36:24.041Z,0
2016-11-02T03:37:04.587Z,0
2016-11-02T03:37:45.114Z,0
2016-11-02T03:38:25.659Z,0
2016-11-02T03:39:06.183Z,0
2016-11-02T03:39:46.707Z,0
2016-11-02T03:40:27.221Z,0
2016-11-02T03:41:07.770Z,0
2016-11-02T03:41:48.297Z,0
2016-11-02T03:42:28.834Z,0
2016-11-02T03:43:09.374Z,0
2016-11-02T03:43:49.902Z,0
2016-11-02T03:44:30.427Z,0
2016-11-02T03:45:10.970Z,0
2016-11-02T03:45:51.497Z,0
2016-11-02T03:46:32.025Z,0
2016-11-02T03:47:12.553Z,0
2016-11-02T03:47:53.086Z,0
2016-11-02T03:48:33.630Z,0
2016-11-02T03:49:14.181Z,0
2016-11-02T03:49:54.713Z,0
2016-11-02T03:50:35.238Z,0
2016-11-02T03:51:15.785Z,0
2016-11-02T03:51:56.319Z,0
2016-11-02T03:52:36.839Z,0
2016-11-02T03:53:17.366Z,0
2016-11-02T03:53:57.896Z,0
2016-11-02T03:54:38.417Z,0
2016-11-02T03:55:18.950Z,0
2016-11-02T03:55:59.474Z,0
2016-11-02T03:56:40.019Z,0
2016-11-02T03:57:20.556Z,0
2016-11-02T03:58:01.089Z,0
2016-11-02T03:58:41.623Z,0
2016-11-02T03:59:22.161Z,0
2016-11-02T04:00:02.704Z,0
2016-11-02T04:00:43.240Z,0
2016-11-02T04:01:23.776Z,0
2016-11-02T04:02:04.311Z,0
2016-11-02T04:02:44.832Z,0
2016-11-02T04:03:25.375Z,0
2016-11-02T04:04:05.909Z,0
2016-11-02T04:04:46.424Z,0
2016-11-02T04:05:26.949Z,0
2016-11-02T04:06:07.480Z,0
2016-11-02T04:06:48.018Z,0
2016-11-02T04:07:28.546Z,0
2016-11-02T04:08:09.077Z,0
2016-11-02T04:08:49.649Z,0
2016-11-02T04:09:30.186Z,0
2016-11-02T04:10:10.722Z,0
2016-11-02T04:10:51.227Z,0
2016-11-02T04:11:31.761Z,0
2016-11-02T04:12:12.282Z,0
2016-11-02T04:12:52.821Z,0
2016-11-02T04:13:33.342Z,0
2016-11-02T04:14:13.884Z,0
2016-11-02T04:14:54.420Z,0
2016-11-02T04:15:34.965Z,0
2016-11-02T04:16:15.506Z,0
2016-11-02T04:16:56.029Z,0
2016-11-02T04:17:36.576Z,0
2016-11-02T04:18:17.166Z,0
2016-11-02T04:18:57.719Z,0
2016-11-02T04:19:38.253Z,0
2016-11-02T04:20:18.784Z,0
2016-11-02T04:20:59.318Z,0
2016-11-02T04:21:39.863Z,0
2016-11-02T04:22:20.385Z,0
2016-11-02T04:23:00.906Z,0
2016-11-02T04:23:41.425Z,0
2016-11-02T04:24:21.943Z,0
2016-11-02T04:25:02.481Z,0
2016-11-02T04:25:43.026Z,0
2016-11-02T04:26:23.558Z,0
2016-11-02T04:27:04.094Z,0
2016-11-02T04:27:44.601Z,0
2016-11-02T04:28:25.168Z,0
2016-11-02T04:29:05.702Z,0
2016-11-02T04:29:46.230Z,0
2016-11-02T04:30:26.765Z,0
2016-11-02T04:31:07.288Z,0
2016-11-02T04:31:47.810Z,0
2016-11-02T04:32:28.339Z,0
2016-11-02T04:33:08.881Z,0
2016-11-02T04:33:49.432Z,0
2016-11-02T04:34:30.007Z,0
2016-11-02T04:35:10.547Z,0
2016-11-02T04:35:51.078Z,0
2016-11-02T04:36:31.602Z,0
2016-11-02T04:37:12.141Z,0
2016-11-02T04:37:52.667Z,0
2016-11-02T04:38:33.199Z,0
2016-11-02T04:39:13.738Z,0
2016-11-02T04:39:54.261Z,0
2016-11-02T04:40:34.780Z,0
2016-11-02T04:41:15.318Z,0
2016-11-02T04:41:55.830Z,0
2016-11-02T04:42:36.377Z,0
2016-11-02T04:43:16.900Z,0
2016-11-02T04:43:57.431Z,0
2016-11-02T04:44:37.951Z,0
2016-11-02T04:45:18.484Z,0
2016-11-02T04:45:59.010Z,0
2016-11-02T04:46:39.634Z,0
2016-11-02T04:47:20.397Z,0
2016-11-02T04:48:01.036Z,0
2016-11-02T04:48:41.547Z,0
2016-11-02T04:49:22.087Z,0
2016-11-02T04:50:02.615Z,0
2016-11-02T04:50:43.122Z,0
2016-11-02T04:51:23.638Z,0
2016-11-02T04:52:04.173Z,0
2016-11-02T04:52:44.727Z,0
2016-11-02T04:53:25.234Z,0
2016-11-02T04:54:05.781Z,0
2016-11-02T04:54:46.371Z,0
2016-11-02T04:55:26.969Z,0
2016-11-02T04:56:07.575Z,0
2016-11-02T04:56:48.196Z,0
2016-11-02T04:57:28.736Z,0
2016-11-02T04:58:09.235Z,0
2016-11-02T04:58:49.755Z,0
2016-11-02T04:59:30.302Z,0
2016-11-02T05:00:10.816Z,0
2016-11-02T05:00:51.353Z,0
2016-11-02T05:01:31.880Z,0
2016-11-02T05:02:12.407Z,0
2016-11-02T05:02:52.943Z,0
2016-11-02T05:03:33.464Z,0
2016-11-02T05:04:14.010Z,0
2016-11-02T05:04:54.526Z,0
2016-11-02T05:05:35.047Z,0
2016-11-02T05:06:15.586Z,0
2016-11-02T05:06:56.108Z,0
2016-11-02T05:07:36.649Z,0
2016-11-02T05:08:17.235Z,0
2016-11-02T05:08:57.752Z,0
2016-11-02T05:09:38.289Z,0
2016-11-02T05:10:18.820Z,0
2016-11-02T05:10:59.355Z,0
2016-11-02T05:11:39.883Z,0
2016-11-02T05:12:20.427Z,0
2016-11-02T05:13:00.969Z,0
2016-11-02T05:13:41.507Z,0
2016-11-02T05:14:22.054Z,0
2016-11-02T05:15:02.592Z,0
2016-11-02T05:15:43.155Z,0
2016-11-02T05:16:23.655Z,0
2016-11-02T05:17:04.147Z,0
2016-11-02T05:17:44.680Z,0
2016-11-02T05:18:25.205Z,0
2016-11-02T05:19:05.735Z,0
2016-11-02T05:19:46.288Z,0
2016-11-02T05:20:26.910Z,0
2016-11-02T05:21:07.402Z,0
2016-11-02T05:21:47.935Z,0
2016-11-02T05:22:28.653Z,0
2016-11-02T05:23:09.469Z,0
2016-11-02T05:23:49.971Z,0
2016-11-02T05:24:30.505Z,0
2016-11-02T05:25:11.020Z,0
2016-11-02T05:25:51.535Z,0
2016-11-02T05:26:32.066Z,0
2016-11-02T05:27:12.579Z,0
2016-11-02T05:27:53.107Z,0
2016-11-02T05:28:33.823Z,0
2016-11-02T05:29:14.512Z,0
2016-11-02T05:29:55.302Z,0
2016-11-02T05:30:36.080Z,0
2016-11-02T05:31:16.719Z,0
2016-11-02T05:31:57.346Z,0
2016-11-02T05:32:37.872Z,0
2016-11-02T05:33:18.390Z,0
2016-11-02T05:33:58.935Z,0
2016-11-02T05:34:39.455Z,0
2016-11-02T05:37:14.059Z,0
2016-11-02T05:37:54.592Z,0
2016-11-02T05:38:35.115Z,0
2016-11-02T05:39:15.651Z,0
2016-11-02T05:39:56.162Z,0
2016-11-02T05:40:36.704Z,0
2016-11-02T05:41:17.241Z,0
2016-11-02T05:41:57.772Z,0
2016-11-02T05:42:38.282Z,0
2016-11-02T05:43:18.935Z,0
2016-11-02T05:43:59.477Z,0
2016-11-02T05:44:39.980Z,0
2016-11-02T05:45:20.513Z,0
2016-11-02T05:46:01.018Z,0
2016-11-02T05:46:41.529Z,0
2016-11-02T05:47:22.026Z,0
2016-11-02T05:48:02.535Z,0
2016-11-02T05:48:43.063Z,0
2016-11-02T05:49:23.587Z,0
2016-11-02T05:50:04.138Z,0
2016-11-02T05:50:44.656Z,0
2016-11-02T05:51:25.196Z,0
2016-11-02T05:52:05.737Z,0
2016-11-02T05:52:46.237Z,0
2016-11-02T05:53:26.759Z,0
2016-11-02T05:54:07.282Z,0
2016-11-02T05:54:47.828Z,0
2016-11-02T05:55:28.362Z,0
2016-11-02T05:56:08.881Z,0
2016-11-02T05:56:49.389Z,0
2016-11-02T05:57:29.928Z,0
2016-11-02T05:58:10.455Z,0
2016-11-02T05:58:50.990Z,0
2016-11-02T05:59:31.503Z,0
2016-11-02T06:00:12.044Z,0
2016-11-02T06:00:52.582Z,0
2016-11-02T06:01:33.117Z,0
2016-11-02T06:02:13.639Z,0
2016-11-02T06:02:54.161Z,0
2016-11-02T06:03:34.700Z,0
2016-11-02T06:04:15.219Z,0
2016-11-02T06:04:55.743Z,0
2016-11-02T06:05:36.267Z,0
2016-11-02T06:06:16.804Z,0
2016-11-02T06:06:57.340Z,0
2016-11-02T06:07:37.867Z,0
2016-11-02T06:08:18.394Z,0
2016-11-02T06:08:58.921Z,0
2016-11-02T06:09:39.454Z,0
2016-11-02T06:10:19.992Z,0
2016-11-02T06:11:00.523Z,0
2016-11-02T06:11:41.058Z,0
2016-11-02T06:12:21.564Z,0
2016-11-02T06:13:02.092Z,0
2016-11-02T06:13:42.626Z,0
2016-11-02T06:14:23.146Z,0
2016-11-02T06:15:03.673Z,0
2016-11-02T06:15:44.195Z,0
2016-11-02T06:16:24.731Z,0
2016-11-02T06:17:05.263Z,0
2016-11-02T06:17:45.786Z,0
2016-11-02T06:18:26.306Z,0
2016-11-02T06:19:06.859Z,0
2016-11-02T06:19:47.406Z,0
2016-11-02T06:20:27.947Z,0
2016-11-02T06:21:08.478Z,0
2016-11-02T06:21:49.009Z,0
2016-11-02T06:22:29.533Z,0
2016-11-02T06:23:10.063Z,5
2016-11-02T06:23:50.599Z,5
2016-11-02T06:24:31.150Z,5
2016-11-02T06:25:11.707Z,5
2016-11-02T06:25:52.243Z,5
2016-11-02T06:26:32.781Z,5
2016-11-02T06:27:13.300Z,5
2016-11-02T06:27:53.826Z,5
2016-11-02T06:28:34.330Z,5
2016-11-02T06:29:14.837Z,5
2016-11-02T06:29:55.375Z,5
2016-11-02T06:30:35.890Z,5
2016-11-02T06:31:16.415Z,5
2016-11-02T06:31:56.937Z,5
2016-11-02T06:32:37.467Z,5
2016-11-02T06:33:18.007Z,10
2016-11-02T06:33:58.559Z,10
2016-11-02T06:34:39.095Z,10
2016-11-02T06:35:19.619Z,10
2016-11-02T06:36:00.132Z,10
2016-11-02T06:36:40.672Z,10
2016-11-02T06:37:21.206Z,10
2016-11-02T06:38:01.812Z,10
2016-11-02T06:38:42.333Z,10
2016-11-02T06:39:22.914Z,10
2016-11-02T06:40:03.457Z,10
2016-11-02T06:40:44.004Z,10
2016-11-02T06:41:24.529Z,10
2016-11-02T06:42:05.064Z,10
2016-11-02T06:42:45.586Z,10
2016-11-02T06:43:26.110Z,10
2016-11-02T06:44:06.644Z,10
2016-11-02T06:44:47.186Z,10
2016-11-02T06:45:27.708Z,15
2016-11-02T06:46:08.242Z,15
2016-11-02T06:46:48.760Z,15
2016-11-02T06:47:29.280Z,15
2016-11-02T06:48:09.801Z,15
2016-11-02T06:48:50.335Z,20
2016-11-02T06:49:30.865Z,25
2016-11-02T06:50:11.410Z,25
2016-11-02T06:50:51.941Z,25
2016-11-02T06:51:32.470Z,25
2016-11-02T06:52:12.993Z,25
2016-11-02T06:52:53.495Z,25
2016-11-02T06:53:34.021Z,25
2016-11-02T06:54:14.550Z,25
2016-11-02T06:54:55.091Z,25
2016-11-02T06:55:35.605Z,25
2016-11-02T06:56:16.140Z,25
2016-11-02T06:56:56.634Z,25
2016-11-02T06:57:37.166Z,25
2016-11-02T06:58:17.700Z,25
2016-11-02T06:58:58.214Z,25
2016-11-02T06:59:38.739Z,25
2016-11-02T07:00:19.275Z,25
2016-11-02T07:00:59.805Z,25
2016-11-02T07:01:40.333Z,25
2016-11-02T07:02:20.876Z,25
2016-11-02T07:03:01.390Z,25
2016-11-02T07:03:41.896Z,25
2016-11-02T07:04:22.446Z,30
2016-11-02T07:05:02.971Z,30
2016-11-02T07:05:43.512Z,30
2016-11-02T07:06:24.017Z,30
2016-11-02T07:07:04.521Z,35
2016-11-02T07:07:45.049Z,35
2016-11-02T07:08:25.567Z,35
2016-11-02T07:09:06.105Z,35
2016-11-02T07:09:46.648Z,30
2016-11-02T07:10:27.170Z,25
2016-11-02T07:11:07.746Z,25
2016-11-02T07:11:48.283Z,25
2016-11-02T07:12:28.840Z,25
2016-11-02T07:13:09.366Z,25
2016-11-02T07:13:49.904Z,25
2016-11-02T07:14:30.427Z,25
2016-11-02T07:15:10.957Z,20
2016-11-02T07:15:51.509Z,20
2016-11-02T07:16:32.032Z,20
2016-11-02T07:17:12.578Z,20
2016-11-02T07:17:53.100Z,20
2016-11-02T07:18:33.625Z,20
2016-11-02T07:19:14.162Z,20
2016-11-02T07:19:54.705Z,20
2016-11-02T07:20:35.255Z,20
2016-11-02T07:21:15.759Z,20
2016-11-02T07:21:56.274Z,30
2016-11-02T07:22:36.805Z,30
2016-11-02T07:23:17.324Z,30
2016-11-02T07:23:57.859Z,35
2016-11-02T07:24:38.396Z,40
2016-11-02T07:25:18.922Z,45
2016-11-02T07:25:59.465Z,55
2016-11-02T07:26:40.001Z,60
2016-11-02T07:27:20.531Z,65
2016-11-02T07:28:01.108Z,65
2016-11-02T07:28:41.624Z,70
2016-11-02T07:29:22.136Z,75
2016-11-02T07:30:02.671Z,75
2016-11-02T07:30:43.258Z,75
2016-11-02T07:31:23.749Z,75
2016-11-02T07:32:04.309Z,75
2016-11-02T07:32:44.843Z,75
2016-11-02T07:33:25.372Z,75
2016-11-02T07:34:05.890Z,75
2016-11-02T07:34:46.418Z,75
2016-11-02T07:35:27.297Z,85
2016-11-02T07:36:07.817Z,85
2016-11-02T07:36:48.352Z,80
2016-11-02T07:37:28.872Z,70
2016-11-02T07:38:09.409Z,60
2016-11-02T07:38:49.913Z,50
2016-11-02T07:39:30.451Z,50
2016-11-02T07:40:11.026Z,50
2016-11-02T07:40:51.562Z,55
2016-11-02T07:41:32.081Z,60
2016-11-02T07:42:12.599Z,55
2016-11-02T07:42:53.125Z,55
2016-11-02T07:43:33.667Z,50
2016-11-02T07:44:14.266Z,50
2016-11-02T07:44:54.812Z,50
2016-11-02T07:45:35.354Z,50
2016-11-02T07:46:15.903Z,55
2016-11-02T07:46:56.424Z,50
2016-11-02T07:47:36.966Z,50
2016-11-02T07:48:17.533Z,55
2016-11-02T07:48:58.074Z,45
2016-11-02T07:49:38.624Z,40
2016-11-02T07:50:19.118Z,40
2016-11-02T07:50:59.643Z,40
2016-11-02T07:51:40.160Z,40
2016-11-02T07:52:20.695Z,45
2016-11-02T07:53:01.240Z,40
2016-11-02T07:53:41.747Z,40
2016-11-02T07:54:22.278Z,40
2016-11-02T07:55:02.823Z,40
2016-11-02T07:55:43.357Z,45
2016-11-02T07:56:23.882Z,45
2016-11-02T07:57:04.413Z,45
2016-11-02T07:57:44.942Z,45
2016-11-02T07:58:25.473Z,40
2016-11-02T07:59:06.001Z,40
2016-11-02T07:59:46.716Z,45
2016-11-02T08:00:27.246Z,50
2016-11-02T08:01:07.784Z,55
2016-11-02T08:01:48.325Z,55
2016-11-02T08:02:28.860Z,60
2016-11-02T08:03:09.401Z,60
2016-11-02T08:03:49.907Z,55
2016-11-02T08:04:30.407Z,60
2016-11-02T08:05:10.978Z,65
2016-11-02T08:05:51.533Z,55
2016-11-02T08:06:32.071Z,45
2016-11-02T08:07:12.586Z,55
2016-11-02T08:07:53.147Z,55
2016-11-02T08:08:33.677Z,70
2016-11-02T08:09:14.184Z,65
2016-11-02T08:09:54.730Z,55
2016-11-02T08:10:35.264Z,60
2016-11-02T08:11:15.779Z,60
2016-11-02T08:11:56.304Z,55
2016-11-02T08:12:36.855Z,55
2016-11-02T08:13:17.384Z,50
2016-11-02T08:13:57.919Z,50
2016-11-02T08:14:38.435Z,50
2016-11-02T08:15:18.948Z,50
2016-11-02T08:15:59.480Z,55
2016-11-02T08:16:40.003Z,55
2016-11-02T08:17:20.529Z,40
2016-11-02T08:18:01.150Z,40
2016-11-02T08:18:41.709Z,40
2016-11-02T08:19:22.250Z,35
2016-11-02T08:20:02.806Z,35
2016-11-02T08:20:43.319Z,35
2016-11-02T08:21:23.836Z,40
2016-11-02T08:22:04.371Z,30
2016-11-02T08:22:44.900Z,40
2016-11-02T08:23:25.438Z,50
2016-11-02T08:24:05.972Z,50
2016-11-02T08:24:46.541Z,65
2016-11-02T08:25:27.059Z,60
2016-11-02T08:26:07.566Z,50
2016-11-02T08:26:48.089Z,40
2016-11-02T08:27:28.646Z,45
2016-11-02T08:28:09.165Z,40
2016-11-02T08:28:49.690Z,50
2016-11-02T08:29:30.219Z,60
2016-11-02T08:30:10.751Z,65
2016-11-02T08:30:51.332Z,55
2016-11-02T08:31:31.861Z,60
2016-11-02T08:32:12.383Z,65
2016-11-02T08:32:52.923Z,65
2016-11-02T08:33:33.522Z,60
2016-11-02T08:34:14.061Z,55
2016-11-02T08:34:54.581Z,55
2016-11-02T08:35:35.113Z,50
2016-11-02T08:36:15.632Z,45
2016-11-02T08:36:56.162Z,45
2016-11-02T08:37:36.726Z,45
2016-11-02T08:38:17.273Z,50
2016-11-02T08:38:57.829Z,55
2016-11-02T08:39:38.308Z,55
2016-11-02T08:40:18.824Z,65
2016-11-02T08:40:59.364Z,60
2016-11-02T08:41:39.890Z,60
2016-11-02T08:42:20.428Z,60
2016-11-02T08:43:00.972Z,55
2016-11-02T08:43:41.473Z,55
2016-11-02T08:44:22.011Z,50
2016-11-02T08:45:02.555Z,55
2016-11-02T08:45:43.054Z,60
2016-11-02T08:46:23.585Z,50
2016-11-02T08:47:04.102Z,60
2016-11-02T08:47:44.633Z,55
2016-11-02T08:48:25.184Z,55
2016-11-02T08:49:05.761Z,50
2016-11-02T08:49:46.305Z,55
2016-11-02T08:50:26.817Z,50
2016-11-02T08:51:07.337Z,40
2016-11-02T08:51:47.918Z,35
2016-11-02T08:52:28.443Z,40
2016-11-02T08:53:08.979Z,55
2016-11-02T08:53:49.500Z,65
2016-11-02T08:54:30.036Z,85
2016-11-02T08:55:10.603Z,105
2016-11-02T08:55:51.095Z,110
2016-11-02T08:56:31.636Z,150
2016-11-02T08:57:12.165Z,170
2016-11-02T08:57:52.686Z,175
2016-11-02T08:58:33.222Z,210
2016-11-02T08:59:13.781Z,185
2016-11-02T08:59:54.263Z,140
2016-11-02T09:00:34.801Z,115
2016-11-02T09:01:15.326Z,100
2016-11-02T09:01:55.861Z,85
2016-11-02T09:02:36.396Z,85
2016-11-02T09:03:16.921Z,95
2016-11-02T09:03:57.429Z,90
2016-11-02T09:04:37.962Z,80
2016-11-02T09:05:18.489Z,75
2016-11-02T09:05:59.028Z,75
2016-11-02T09:06:39.567Z,75
2016-11-02T09:07:20.053Z,65
2016-11-02T09:08:00.635Z,65
2016-11-02T09:08:41.217Z,90
2016-11-02T09:09:21.728Z,105
2016-11-02T09:10:02.228Z,110
2016-11-02T09:10:42.720Z,110
2016-11-02T09:11:23.255Z,110
2016-11-02T09:12:03.784Z,100
2016-11-02T09:12:44.345Z,100
2016-11-02T09:13:24.848Z,110
2016-11-02T09:14:05.398Z,120
2016-11-02T09:14:45.931Z,120
2016-11-02T09:15:26.474Z,120
2016-11-02T09:16:07.007Z,95
2016-11-02T09:16:47.541Z,65
2016-11-02T09:17:28.090Z,75
2016-11-02T09:18:08.635Z,80
2016-11-02T09:18:49.153Z,80
2016-11-02T09:19:29.689Z,80
2016-11-02T09:20:10.217Z,75
2016-11-02T09:20:50.765Z,80
2016-11-02T09:21:31.306Z,85
2016-11-02T09:22:11.849Z,95
2016-11-02T09:22:52.398Z,100
2016-11-02T09:23:32.941Z,95
2016-11-02T09:24:13.455Z,95
2016-11-02T09:24:53.996Z,95
2016-11-02T09:25:34.537Z,100
2016-11-02T09:26:15.051Z,100
2016-11-02T09:26:55.594Z,100
2016-11-02T09:27:36.190Z,105
2016-11-02T09:28:16.698Z,105
2016-11-02T09:28:57.234Z,110
2016-11-02T09:29:37.746Z,110
2016-11-02T09:30:18.292Z,125
2016-11-02T09:30:58.809Z,130
2016-11-02T09:31:39.313Z,135
2016-11-02T09:32:19.868Z,130
2016-11-02T09:33:00.387Z,130
2016-11-02T09:33:40.910Z,145
2016-11-02T09:34:21.460Z,160
2016-11-02T09:35:01.997Z,160
2016-11-02T09:35:42.548Z,160
2016-11-02T09:36:23.083Z,165
2016-11-02T09:37:03.620Z,170
2016-11-02T09:37:44.165Z,195
2016-11-02T09:38:24.685Z,200
2016-11-02T09:39:05.223Z,205
2016-11-02T09:39:45.743Z,200
2016-11-02T09:40:26.307Z,200
2016-11-02T09:41:06.802Z,190
2016-11-02T09:41:47.329Z,185
2016-11-02T09:42:27.862Z,185
2016-11-02T09:43:08.406Z,165
2016-11-02T09:43:48.939Z,150
2016-11-02T09:44:29.482Z,145
2016-11-02T09:45:10.026Z,145
2016-11-02T09:45:50.541Z,150
2016-11-02T09:46:31.056Z,165
2016-11-02T09:47:11.568Z,175
2016-11-02T09:47:52.087Z,200
2016-11-02T09:48:32.612Z,210
2016-11-02T09:49:13.163Z,220
2016-11-02T09:49:53.700Z,265
2016-11-02T09:50:34.243Z,240
2016-11-02T09:51:14.795Z,205
2016-11-02T09:51:55.324Z,175
2016-11-02T09:52:35.844Z,115
2016-11-02T09:53:16.365Z,115
2016-11-02T09:53:56.885Z,145
2016-11-02T09:54:37.425Z,170
2016-11-02T09:55:18.014Z,205
2016-11-02T09:58:18.700Z,380
2016-11-02T09:58:59.216Z,355
2016-11-02T09:59:39.752Z,420
2016-11-02T10:00:20.249Z,445
2016-11-02T10:01:00.761Z,240
2016-11-02T10:01:41.291Z,225
2016-11-02T10:02:21.865Z,265
2016-11-02T10:03:02.405Z,350
2016-11-02T10:03:42.977Z,360
2016-11-02T10:04:23.478Z,375
2016-11-02T10:05:04.022Z,270
2016-11-02T10:05:44.535Z,210
2016-11-02T10:06:25.045Z,205
2016-11-02T10:07:05.567Z,265
2016-11-02T10:07:46.095Z,340
2016-11-02T10:08:26.642Z,280
2016-11-02T10:09:07.169Z,225
2016-11-02T10:09:47.719Z,200
2016-11-02T10:10:28.244Z,190
2016-11-02T10:11:08.780Z,170
2016-11-02T10:11:49.324Z,150
2016-11-02T10:12:29.848Z,140
2016-11-02T10:13:10.369Z,140
2016-11-02T10:13:50.905Z,125
2016-11-02T10:14:31.426Z,140
2016-11-02T10:15:11.951Z,140
2016-11-02T10:15:52.466Z,160
2016-11-02T10:16:32.994Z,185
2016-11-02T10:17:13.523Z,230
2016-11-02T10:17:54.042Z,265
2016-11-02T10:18:34.567Z,260
2016-11-02T10:19:15.108Z,220
2016-11-02T10:19:55.623Z,205
2016-11-02T10:20:36.165Z,185
2016-11-02T10:21:16.694Z,190
2016-11-02T10:21:57.237Z,185
2016-11-02T10:22:37.765Z,175
2016-11-02T10:23:18.289Z,165
2016-11-02T10:23:58.808Z,165
2016-11-02T10:24:39.325Z,120
2016-11-02T10:25:19.864Z,110
2016-11-02T10:26:00.399Z,130
2016-11-02T10:26:40.928Z,125
2016-11-02T10:27:21.459Z,85
2016-11-02T10:28:02.000Z,55
2016-11-02T10:28:42.535Z,40
2016-11-02T10:29:23.069Z,40
2016-11-02T10:30:03.643Z,35
2016-11-02T10:30:44.189Z,45
2016-11-02T10:31:24.711Z,55
2016-11-02T10:32:05.265Z,55
2016-11-02T10:32:45.816Z,50
2016-11-02T10:33:26.339Z,75
2016-11-02T10:34:06.857Z,90
2016-11-02T10:34:47.381Z,110
2016-11-02T10:35:27.908Z,125
2016-11-02T10:36:08.442Z,100
2016-11-02T10:36:49.008Z,65
2016-11-02T10:37:29.479Z,45
2016-11-02T10:38:10.001Z,30
2016-11-02T10:38:50.517Z,35
2016-11-02T10:39:31.037Z,50
2016-11-02T10:40:11.565Z,50
2016-11-02T10:40:52.105Z,85
2016-11-02T10:41:32.622Z,110
2016-11-02T10:42:13.150Z,120
2016-11-02T10:42:53.690Z,135
2016-11-02T10:43:34.241Z,135
2016-11-02T10:44:14.771Z,140
2016-11-02T10:44:55.289Z,170
2016-11-02T10:45:35.811Z,160